Daishinmaru No.3 — JM6362 — position and weather

sailwx.info

Track history (hours):
 
Tides and Currents Weather Stations Pressure Air Temp Water Temp Dewpoint Dewpoint Depression Visibility Wind Speed Wind Dir Waves Ship Positions

Daishinmaru No.3

Last reported at 2018-Jun-22 08:24 UTC. Time now 2018-Jun-22 17:13 UTC.
Position N 35°31' E 139°57'.

Length 72 m; draft 3.3 m.

Type: Cargo ship. MMSI: 431600252.

Date/timePositionNaut miles runAvg speedWind from/ knotsBaromVisibWave heightAir tempDewpointWater temp
2018-Jun-22 08:24N 35°31' E 139°57'511.8
2018-Jun-22 08:00N 35°29' E 139°52'612.1
2018-Jun-22 07:30N 35°25' E 139°47'611.7
2018-Jun-22 07:00N 35°19' E 139°44'610.9
2018-Jun-22 06:30N 35°14' E 139°47'24610.4
2018-Jun-21 06:44N 33°59' E 135°02'311.0
2018-Jun-21 06:28N 34°02' E 135°02'511.1
2018-Jun-21 06:00N 34°07' E 135°02'611.2
2018-Jun-21 05:30N 34°12' E 135°02'611.1
2018-Jun-21 05:01N 34°18' E 135°04'611.1
2018-Jun-21 04:31N 34°23' E 135°07'611.6
2018-Jun-21 04:01N 34°28' E 135°10'611.8
2018-Jun-21 03:29N 34°33' E 135°14'511.6
2018-Jun-21 03:00N 34°37' E 135°19'611.6
2018-Jun-21 02:30N 34°41' E 135°23'0 0.7
2018-Jun-21 01:59N 34°42' E 135°24'0 0.0
2018-Jun-21 01:29N 34°42' E 135°24'0 0.0
2018-Jun-20 23:41N 34°42' E 135°24'0 0.0
2018-Jun-20 23:05N 34°42' E 135°24'0 0.0
2018-Jun-20 22:53N 34°42' E 135°24'0 0.0
2018-Jun-20 22:29N 34°42' E 135°24'0 0.0
2018-Jun-20 21:59N 34°42' E 135°24'0 0.0
2018-Jun-20 21:23N 34°42' E 135°24'0 0.0
2018-Jun-20 20:59N 34°42' E 135°24'0 0.0
2018-Jun-20 20:29N 34°42' E 135°24'1 1.6
2018-Jun-20 20:00N 34°41' E 135°23'5 9.6
2018-Jun-20 19:30N 34°37' E 135°19'510.1
2018-Jun-20 19:00N 34°33' E 135°15'510.2
2018-Jun-20 18:30N 34°29' E 135°11'510.4
2018-Jun-20 18:00N 34°26' E 135°07'510.6
2018-Jun-20 17:30N 34°21' E 135°03'510.8
2018-Jun-20 17:01N 34°17' E 134°59'611.4
2018-Jun-20 16:30N 34°11' E 134°60'511.2
2018-Jun-20 16:00N 34°06' E 134°60'611.0
2018-Jun-20 15:30N 34°00' E 135°00'610.7
2018-Jun-20 14:58N 33°55' E 135°01'5 9.9
2018-Jun-20 14:29N 33°50' E 135°03'248 8.3
2018-Jun-19 08:28N 35°16' E 139°46'510.1
2018-Jun-19 08:00N 35°20' E 139°43'5 9.6
2018-Jun-19 07:30N 35°24' E 139°43'510.3
2018-Jun-19 07:00N 35°28' E 139°48'5 9.7
2018-Jun-19 06:30N 35°32' E 139°51'510.0
2018-Jun-19 05:58N 35°37' E 139°49'1 0.1
2018-Jun-18 22:33N 35°37' E 139°48'0 0.0
2018-Jun-18 22:31N 35°37' E 139°48'2 3.2
2018-Jun-18 22:00N 35°36' E 139°50'2 4.2
2018-Jun-18 21:30N 35°35' E 139°52'0 0.1
2018-Jun-18 21:00N 35°35' E 139°52'0 0.0
2018-Jun-18 20:30N 35°35' E 139°52'0 0.1
2018-Jun-18 20:00N 35°35' E 139°52'0 0.0
2018-Jun-18 19:29N 35°35' E 139°52'0 0.0
2018-Jun-18 19:00N 35°35' E 139°52'0 0.0
2018-Jun-18 18:30N 35°35' E 139°52'0 0.0
2018-Jun-18 18:00N 35°35' E 139°52'0 0.0
2018-Jun-18 17:29N 35°35' E 139°52'0 0.1
2018-Jun-18 17:00N 35°35' E 139°52'5 9.8
2018-Jun-18 16:30N 35°30' E 139°52'510.2
2018-Jun-18 16:00N 35°26' E 139°48'510.2
2018-Jun-18 15:30N 35°22' E 139°45'5 9.5
2018-Jun-18 15:00N 35°17' E 139°46'510.0
2018-Jun-18 14:30N 35°12' E 139°47'  
2018-Jun-13 09:47N 35°16' E 139°46'310.5
2018-Jun-13 09:30N 35°19' E 139°44'5 9.8
2018-Jun-13 09:00N 35°23' E 139°43'5 9.6
2018-Jun-13 08:29N 35°27' E 139°47'5 9.6
2018-Jun-13 08:00N 35°30' E 139°51'11 2.2
2018-Jun-13 03:13N 35°38' E 139°59'9 9.4
2018-Jun-13 02:18N 35°31' E 139°54'310.6
2018-Jun-13 02:00N 35°29' E 139°51'510.3
2018-Jun-13 01:31N 35°25' E 139°47'510.2
2018-Jun-13 01:00N 35°20' E 139°44'4 9.0
2018-Jun-13 00:31N 35°16' E 139°46'5 8.1
2018-Jun-12 23:51N 35°11' E 139°47'  
Track history (hours):
 
Tides and Currents Weather Stations Pressure Air Temp Water Temp Dewpoint Dewpoint Depression Visibility Wind Speed Wind Dir Waves Ship Positions

Daishinmaru No.3

Last reported at 2018-Jun-22 08:24 UTC. Time now 2018-Jun-22 17:13 UTC.
Position N 35°31' E 139°57'.

Length 72 m; draft 3.3 m.

Type: Cargo ship. MMSI: 431600252.

Date/timePositionNaut miles runAvg speedWind from/ knotsBaromVisibWave heightAir tempDewpointWater temp
2018-Jun-22 08:24N 35°31' E 139°57'511.8
2018-Jun-22 08:00N 35°29' E 139°52'612.1
2018-Jun-22 07:30N 35°25' E 139°47'611.7
2018-Jun-22 07:00N 35°19' E 139°44'610.9
2018-Jun-22 06:30N 35°14' E 139°47'24610.4
2018-Jun-21 06:44N 33°59' E 135°02'311.0
2018-Jun-21 06:28N 34°02' E 135°02'511.1
2018-Jun-21 06:00N 34°07' E 135°02'611.2
2018-Jun-21 05:30N 34°12' E 135°02'611.1
2018-Jun-21 05:01N 34°18' E 135°04'611.1
2018-Jun-21 04:31N 34°23' E 135°07'611.6
2018-Jun-21 04:01N 34°28' E 135°10'611.8
2018-Jun-21 03:29N 34°33' E 135°14'511.6
2018-Jun-21 03:00N 34°37' E 135°19'611.6
2018-Jun-21 02:30N 34°41' E 135°23'0 0.7
2018-Jun-21 01:59N 34°42' E 135°24'0 0.0
2018-Jun-21 01:29N 34°42' E 135°24'0 0.0
2018-Jun-20 23:41N 34°42' E 135°24'0 0.0
2018-Jun-20 23:05N 34°42' E 135°24'0 0.0
2018-Jun-20 22:53N 34°42' E 135°24'0 0.0
2018-Jun-20 22:29N 34°42' E 135°24'0 0.0
2018-Jun-20 21:59N 34°42' E 135°24'0 0.0
2018-Jun-20 21:23N 34°42' E 135°24'0 0.0
2018-Jun-20 20:59N 34°42' E 135°24'0 0.0
2018-Jun-20 20:29N 34°42' E 135°24'1 1.6
2018-Jun-20 20:00N 34°41' E 135°23'5 9.6
2018-Jun-20 19:30N 34°37' E 135°19'510.1
2018-Jun-20 19:00N 34°33' E 135°15'510.2
2018-Jun-20 18:30N 34°29' E 135°11'510.4
2018-Jun-20 18:00N 34°26' E 135°07'510.6
2018-Jun-20 17:30N 34°21' E 135°03'510.8
2018-Jun-20 17:01N 34°17' E 134°59'611.4
2018-Jun-20 16:30N 34°11' E 134°60'511.2
2018-Jun-20 16:00N 34°06' E 134°60'611.0
2018-Jun-20 15:30N 34°00' E 135°00'610.7
2018-Jun-20 14:58N 33°55' E 135°01'5 9.9
2018-Jun-20 14:29N 33°50' E 135°03'248 8.3
2018-Jun-19 08:28N 35°16' E 139°46'510.1
2018-Jun-19 08:00N 35°20' E 139°43'5 9.6
2018-Jun-19 07:30N 35°24' E 139°43'510.3
2018-Jun-19 07:00N 35°28' E 139°48'5 9.7
2018-Jun-19 06:30N 35°32' E 139°51'510.0
2018-Jun-19 05:58N 35°37' E 139°49'1 0.1
2018-Jun-18 22:33N 35°37' E 139°48'0 0.0
2018-Jun-18 22:31N 35°37' E 139°48'2 3.2
2018-Jun-18 22:00N 35°36' E 139°50'2 4.2
2018-Jun-18 21:30N 35°35' E 139°52'0 0.1
2018-Jun-18 21:00N 35°35' E 139°52'0 0.0
2018-Jun-18 20:30N 35°35' E 139°52'0 0.1
2018-Jun-18 20:00N 35°35' E 139°52'0 0.0
2018-Jun-18 19:29N 35°35' E 139°52'0 0.0
2018-Jun-18 19:00N 35°35' E 139°52'0 0.0
2018-Jun-18 18:30N 35°35' E 139°52'0 0.0
2018-Jun-18 18:00N 35°35' E 139°52'0 0.0
2018-Jun-18 17:29N 35°35' E 139°52'0 0.1
2018-Jun-18 17:00N 35°35' E 139°52'5 9.8
2018-Jun-18 16:30N 35°30' E 139°52'510.2
2018-Jun-18 16:00N 35°26' E 139°48'510.2
2018-Jun-18 15:30N 35°22' E 139°45'5 9.5
2018-Jun-18 15:00N 35°17' E 139°46'510.0
2018-Jun-18 14:30N 35°12' E 139°47'  
2018-Jun-13 09:47N 35°16' E 139°46'310.5
2018-Jun-13 09:30N 35°19' E 139°44'5 9.8
2018-Jun-13 09:00N 35°23' E 139°43'5 9.6
2018-Jun-13 08:29N 35°27' E 139°47'5 9.6
2018-Jun-13 08:00N 35°30' E 139°51'11 2.2
2018-Jun-13 03:13N 35°38' E 139°59'9 9.4
2018-Jun-13 02:18N 35°31' E 139°54'310.6
2018-Jun-13 02:00N 35°29' E 139°51'510.3
2018-Jun-13 01:31N 35°25' E 139°47'510.2
2018-Jun-13 01:00N 35°20' E 139°44'4 9.0
2018-Jun-13 00:31N 35°16' E 139°46'5 8.1
2018-Jun-12 23:51N 35°11' E 139°47'  

Dump ship's entire track history